createdAt,value
2022-11-09T00:01:44.117Z,10.35
2022-11-09T00:08:06.748Z,12.35
2022-11-09T00:10:33.860Z,13.63
2022-11-09T00:13:01.293Z,12.65
2022-11-09T00:15:28.568Z,12.55
2022-11-09T00:17:55.492Z,11.23
2022-11-09T00:20:22.279Z,14.55
2022-11-09T00:22:50.244Z,12.77
2022-11-09T00:25:17.158Z,9.98
2022-11-09T00:27:44.041Z,14.15
2022-11-09T00:30:11.709Z,15.95
2022-11-09T00:32:38.588Z,15.45
2022-11-09T00:35:05.909Z,11.02
2022-11-09T00:37:32.800Z,13.43
2022-11-09T00:39:59.641Z,10.93
2022-11-09T00:42:26.592Z,14.75
2022-11-09T00:44:53.413Z,10.23
2022-11-09T00:47:20.312Z,10.63
2022-11-09T00:49:47.223Z,9.90
2022-11-09T00:52:14.097Z,11.25
2022-11-09T00:54:40.992Z,10.63
2022-11-09T00:57:07.836Z,10.65
2022-11-09T00:59:34.706Z,10.88
2022-11-09T01:02:01.509Z,12.35
2022-11-09T01:04:28.344Z,13.25
2022-11-09T01:06:55.259Z,9.45
2022-11-09T01:09:22.175Z,11.20
2022-11-09T01:11:48.961Z,11.82
2022-11-09T01:14:16.261Z,10.25
2022-11-09T01:16:43.060Z,11.65
2022-11-09T01:19:09.971Z,9.60
2022-11-09T01:21:36.777Z,9.82
2022-11-09T01:24:04.338Z,13.25
2022-11-09T01:26:31.315Z,9.80
2022-11-09T01:28:58.128Z,10.02
2022-11-09T01:31:25.219Z,12.63
2022-11-09T01:33:52.101Z,11.32
2022-11-09T01:36:21.951Z,11.52
2022-11-09T01:38:49.520Z,9.82
2022-11-09T01:41:22.911Z,11.95
2022-11-09T01:44:11.895Z,9.93
2022-11-09T01:47:07.751Z,9.98
2022-11-09T01:49:43.484Z,11.13
2022-11-09T01:52:17.879Z,9.48
2022-11-09T01:57:36.994Z,14.07
2022-11-09T02:00:10.293Z,11.88
2022-11-09T02:02:39.159Z,10.88
2022-11-09T02:05:14.480Z,14.82
2022-11-09T02:07:42.653Z,15.13
2022-11-09T02:10:18.953Z,14.90
2022-11-09T02:12:46.324Z,10.45
2022-11-09T02:15:15.394Z,14.02
2022-11-09T02:17:43.123Z,15.88
2022-11-09T02:20:12.712Z,11.05
2022-11-09T02:22:41.653Z,11.88
2022-11-09T02:25:10.121Z,15.50
2022-11-09T02:27:37.396Z,13.00
2022-11-09T02:30:05.490Z,11.15
2022-11-09T02:32:32.466Z,13.27
2022-11-09T02:34:59.311Z,13.77
2022-11-09T02:37:34.676Z,12.48
2022-11-09T02:40:07.721Z,17.40
2022-11-09T02:42:34.660Z,13.88
2022-11-09T02:45:01.496Z,14.48
2022-11-09T02:47:28.339Z,14.25
2022-11-09T02:49:57.952Z,14.85
2022-11-09T02:52:24.875Z,17.40
2022-11-09T02:54:51.749Z,13.18
2022-11-09T02:57:18.612Z,14.05
2022-11-09T02:59:45.436Z,11.70
2022-11-09T03:02:12.399Z,16.13
2022-11-09T03:04:39.249Z,14.95
2022-11-09T03:07:07.689Z,13.63
2022-11-09T03:09:34.550Z,14.20
2022-11-09T03:12:21.346Z,14.05
2022-11-09T03:14:48.225Z,13.95
2022-11-09T03:17:15.010Z,14.82
2022-11-09T03:19:41.888Z,15.55
2022-11-09T03:22:08.739Z,17.77
2022-11-09T03:24:35.551Z,18.52
2022-11-09T03:27:02.415Z,18.33
2022-11-09T03:29:29.238Z,16.48
2022-11-09T03:31:56.116Z,17.88
2022-11-09T03:34:22.994Z,14.20
2022-11-09T03:36:49.838Z,15.20
2022-11-09T03:39:16.680Z,15.25
2022-11-09T03:41:43.514Z,12.20
2022-11-09T03:44:10.302Z,14.20
2022-11-09T03:46:37.216Z,14.23
2022-11-09T03:49:04.216Z,17.08
2022-11-09T03:51:31.137Z,14.20
2022-11-09T03:53:57.942Z,14.45
2022-11-09T03:56:24.846Z,12.95
2022-11-09T03:58:51.657Z,19.63
2022-11-09T04:01:18.710Z,14.65
2022-11-09T04:03:45.609Z,17.48
2022-11-09T04:06:12.421Z,11.13
2022-11-09T04:08:39.257Z,14.75
2022-11-09T04:11:06.132Z,13.45
2022-11-09T04:13:32.973Z,12.68
2022-11-09T04:15:59.801Z,16.05
2022-11-09T04:18:26.629Z,14.55
2022-11-09T04:20:53.501Z,15.55
2022-11-09T04:23:20.650Z,15.77
2022-11-09T04:25:47.834Z,13.02
2022-11-09T04:28:14.704Z,15.52
2022-11-09T04:30:43.165Z,10.93
2022-11-09T04:33:10.178Z,14.50
2022-11-09T04:35:37.115Z,16.15
2022-11-09T04:38:07.045Z,15.55
2022-11-09T04:40:35.821Z,17.70
2022-11-09T04:43:04.845Z,13.32
2022-11-09T04:45:34.137Z,14.23
2022-11-09T04:48:06.758Z,13.55
2022-11-09T04:50:33.995Z,13.70
2022-11-09T04:53:09.056Z,17.30
2022-11-09T04:55:36.303Z,16.00
2022-11-09T04:58:03.494Z,17.38
2022-11-09T05:00:31.199Z,15.15
2022-11-09T05:03:02.448Z,16.73
2022-11-09T05:05:30.125Z,17.20
2022-11-09T05:07:57.118Z,16.60
2022-11-09T05:10:24.198Z,16.13
2022-11-09T05:12:56.878Z,14.77
2022-11-09T05:15:23.672Z,16.30
2022-11-09T05:17:50.585Z,13.85
2022-11-09T05:20:17.572Z,17.55
2022-11-09T05:23:03.239Z,16.75
2022-11-09T05:25:30.172Z,16.20
2022-11-09T05:27:57.144Z,18.50
2022-11-09T05:30:24.152Z,18.23
2022-11-09T05:32:50.979Z,15.80
2022-11-09T05:35:17.913Z,17.20
2022-11-09T05:37:50.871Z,17.85
2022-11-09T05:40:19.307Z,21.33
2022-11-09T05:42:46.876Z,16.27
2022-11-09T05:45:41.053Z,16.77
2022-11-09T05:48:04.689Z,17.27
2022-11-09T05:50:31.621Z,18.00
2022-11-09T05:53:02.156Z,20.38
2022-11-09T05:55:29.044Z,18.70
2022-11-09T05:57:56.590Z,18.15
2022-11-09T06:00:23.564Z,20.15
2022-11-09T06:02:50.693Z,20.02
2022-11-09T06:05:17.761Z,20.60
2022-11-09T06:07:44.614Z,19.75
2022-11-09T06:10:12.098Z,18.08
2022-11-09T06:12:38.959Z,20.08
2022-11-09T06:15:06.298Z,19.17
2022-11-09T06:17:33.183Z,20.15
2022-11-09T06:20:00.165Z,17.70
2022-11-09T06:22:27.196Z,19.90
2022-11-09T06:24:54.013Z,19.13
2022-11-09T06:27:20.848Z,17.95
2022-11-09T06:29:47.721Z,21.02
2022-11-09T06:32:14.555Z,18.60
2022-11-09T06:34:43.331Z,19.33
2022-11-09T06:37:10.184Z,23.35
2022-11-09T06:39:37.042Z,26.42
2022-11-09T06:42:04.056Z,24.15
2022-11-09T06:44:30.922Z,24.42
2022-11-09T06:46:57.779Z,21.92
2022-11-09T06:49:24.574Z,18.17
2022-11-09T06:51:51.425Z,22.40
2022-11-09T06:54:18.239Z,21.67
2022-11-09T06:56:45.076Z,24.65
2022-11-09T06:59:11.889Z,20.83
2022-11-09T07:01:39.004Z,20.08
2022-11-09T07:04:05.911Z,22.92
2022-11-09T07:06:32.800Z,21.25
2022-11-09T07:08:59.662Z,19.45
2022-11-09T07:11:26.567Z,22.80
2022-11-09T07:13:57.251Z,21.52
2022-11-09T07:16:24.760Z,26.15
2022-11-09T07:18:51.584Z,20.35
2022-11-09T07:21:18.817Z,18.50
2022-11-09T07:23:48.023Z,21.20
2022-11-09T07:26:16.023Z,20.10
2022-11-09T07:28:43.234Z,20.70
2022-11-09T07:31:10.404Z,23.65
2022-11-09T07:33:37.624Z,22.17
2022-11-09T07:36:05.712Z,20.27
2022-11-09T07:38:32.656Z,23.45
2022-11-09T07:41:00.919Z,22.70
2022-11-09T07:43:28.827Z,24.52
2022-11-09T07:45:55.942Z,21.10
2022-11-09T07:48:23.172Z,24.67
2022-11-09T07:50:50.073Z,25.40
2022-11-09T07:53:17.261Z,18.92
2022-11-09T07:55:44.663Z,21.55
2022-11-09T07:58:13.709Z,22.13
2022-11-09T08:00:42.261Z,21.58
2022-11-09T08:03:09.867Z,20.08
2022-11-09T08:05:37.431Z,22.83
2022-11-09T08:08:08.196Z,18.38
2022-11-09T08:10:36.033Z,21.00
2022-11-09T08:13:09.913Z,22.00
2022-11-09T08:15:38.405Z,24.38
2022-11-09T08:18:11.584Z,21.58
2022-11-09T08:20:38.438Z,22.83
2022-11-09T08:23:05.793Z,18.15
2022-11-09T08:25:35.063Z,18.83
2022-11-09T08:28:01.976Z,23.35
2022-11-09T08:30:29.058Z,20.42
2022-11-09T08:32:56.076Z,18.73
2022-11-09T08:35:24.392Z,17.45
2022-11-09T08:37:53.060Z,17.98
2022-11-09T08:40:25.376Z,19.30
2022-11-09T08:42:52.965Z,17.48
2022-11-09T08:45:19.922Z,20.25
2022-11-09T08:47:47.143Z,18.73
2022-11-09T08:50:15.580Z,18.80
2022-11-09T08:52:42.416Z,20.13
2022-11-09T08:55:09.475Z,20.58
2022-11-09T08:57:36.344Z,18.60
2022-11-09T09:00:04.306Z,17.98
2022-11-09T09:02:31.159Z,15.25
2022-11-09T09:04:57.976Z,16.70
2022-11-09T09:07:25.115Z,17.17
2022-11-09T09:09:52.082Z,17.38
2022-11-09T09:12:19.014Z,18.52
2022-11-09T09:14:45.860Z,16.40
2022-11-09T09:17:12.701Z,17.77
2022-11-09T09:19:39.595Z,15.85
2022-11-09T09:22:06.450Z,16.10
2022-11-09T09:24:33.429Z,15.05
2022-11-09T09:27:00.224Z,16.25
2022-11-09T09:29:27.066Z,17.48
2022-11-09T09:31:53.954Z,16.52
2022-11-09T09:34:20.871Z,14.18
2022-11-09T09:36:48.531Z,16.63
2022-11-09T09:39:16.011Z,13.55
2022-11-09T09:41:58.626Z,14.98
2022-11-09T09:44:45.419Z,14.65
2022-11-09T09:47:49.224Z,15.95
2022-11-09T09:50:21.625Z,16.48
2022-11-09T09:53:24.288Z,15.38
2022-11-09T09:56:00.520Z,13.73
2022-11-09T09:58:30.541Z,11.52
2022-11-09T10:01:10.958Z,13.77
2022-11-09T10:03:37.887Z,14.70
2022-11-09T10:06:07.922Z,14.05
2022-11-09T10:09:06.990Z,14.73
2022-11-09T10:11:51.904Z,15.13
2022-11-09T10:14:52.970Z,14.48
2022-11-09T10:17:57.341Z,17.25
2022-11-09T10:20:57.225Z,14.57
2022-11-09T10:23:45.028Z,12.98
2022-11-09T10:26:30.075Z,12.80
2022-11-09T10:29:15.613Z,15.52
2022-11-09T10:31:45.809Z,14.43
2022-11-09T10:34:29.251Z,16.05
2022-11-09T10:37:19.317Z,14.65
2022-11-09T10:40:04.268Z,19.35
2022-11-09T10:42:31.198Z,16.20
2022-11-09T10:45:00.014Z,17.60
2022-11-09T10:47:26.848Z,16.08
2022-11-09T10:50:19.832Z,16.00
2022-11-09T10:52:47.849Z,14.00
2022-11-09T10:55:24.603Z,14.95
2022-11-09T10:58:17.120Z,14.82
2022-11-09T11:01:23.455Z,13.05
2022-11-09T11:03:52.870Z,12.73
2022-11-09T11:06:31.597Z,14.52
2022-11-09T11:08:58.566Z,14.10
2022-11-09T11:11:33.890Z,15.32
2022-11-09T11:14:21.693Z,19.85
2022-11-09T11:16:52.966Z,15.13
2022-11-09T11:19:27.506Z,14.20
2022-11-09T11:22:25.171Z,11.68
2022-11-09T11:25:10.014Z,13.38
2022-11-09T11:27:46.399Z,18.83
2022-11-09T11:30:20.261Z,15.95
2022-11-09T11:32:50.443Z,21.27
2022-11-09T11:35:36.264Z,17.25
2022-11-09T11:38:27.060Z,16.83
2022-11-09T11:41:26.279Z,16.77
2022-11-09T11:44:26.663Z,13.75
2022-11-09T11:47:14.520Z,11.82
2022-11-09T11:49:59.518Z,17.27
2022-11-09T11:52:51.807Z,17.52
2022-11-09T11:55:49.325Z,19.10
2022-11-09T11:58:36.940Z,26.35
2022-11-09T12:01:36.784Z,24.77
2022-11-09T12:04:06.378Z,25.08
2022-11-09T12:06:48.666Z,17.98
2022-11-09T12:09:41.568Z,15.30
2022-11-09T12:12:27.721Z,14.52
2022-11-09T12:15:06.313Z,19.70
2022-11-09T12:18:00.789Z,14.00
2022-11-09T12:20:40.755Z,15.20
2022-11-09T12:23:16.694Z,15.98
2022-11-09T12:25:54.330Z,16.42
2022-11-09T12:28:58.094Z,13.63
2022-11-09T12:31:59.915Z,16.63
2022-11-09T12:34:29.595Z,16.15
2022-11-09T12:37:03.335Z,17.52
2022-11-09T12:39:38.994Z,16.27
2022-11-09T12:42:23.220Z,16.38
2022-11-09T12:45:03.640Z,20.27
2022-11-09T12:47:41.340Z,19.52
2022-11-09T12:50:17.227Z,20.85
2022-11-09T12:52:47.374Z,23.92
2022-11-09T12:55:22.765Z,23.73
2022-11-09T12:57:49.803Z,22.88
2022-11-09T13:00:35.164Z,21.17
2022-11-09T13:03:14.157Z,28.63
2022-11-09T13:05:43.158Z,32.65
2022-11-09T13:08:24.193Z,21.27
2022-11-09T13:11:28.243Z,27.48
2022-11-09T13:14:26.132Z,24.27
2022-11-09T13:17:01.203Z,23.98
2022-11-09T13:19:40.103Z,19.02
2022-11-09T13:22:16.087Z,23.20
2022-11-09T13:24:56.534Z,19.70
2022-11-09T13:27:47.832Z,26.27
2022-11-09T13:30:23.890Z,24.92
2022-11-09T13:33:09.667Z,22.92
2022-11-09T13:35:42.652Z,23.88
2022-11-09T13:38:23.827Z,26.05
2022-11-09T13:40:58.309Z,25.15
2022-11-09T13:45:56.997Z,28.42
2022-11-09T13:48:26.615Z,22.05
2022-11-09T13:50:56.688Z,30.75
2022-11-09T13:53:56.218Z,26.60
2022-11-09T13:56:36.790Z,25.08
2022-11-09T13:59:24.429Z,25.10
2022-11-09T14:02:02.219Z,29.23
2022-11-09T14:04:29.094Z,26.90
2022-11-09T14:07:10.138Z,25.63
2022-11-09T14:10:19.211Z,24.85
2022-11-09T14:13:16.835Z,24.88
2022-11-09T14:15:55.319Z,25.33
2022-11-09T14:18:36.371Z,22.10
2022-11-09T14:21:31.155Z,23.88
2022-11-09T14:24:17.494Z,23.13
2022-11-09T14:27:21.487Z,22.75
2022-11-09T14:29:51.864Z,24.73
2022-11-09T14:32:18.675Z,24.75
2022-11-09T14:34:45.464Z,25.65
2022-11-09T14:37:14.212Z,22.70
2022-11-09T14:39:41.083Z,21.30
2022-11-09T14:42:08.379Z,18.38
2022-11-09T14:44:40.676Z,20.98
2022-11-09T14:47:16.925Z,20.27
2022-11-09T14:49:45.484Z,23.52
2022-11-09T14:52:17.328Z,21.83
2022-11-09T14:54:45.823Z,21.15
2022-11-09T14:57:16.360Z,19.00
2022-11-09T14:59:45.336Z,21.52
2022-11-09T15:02:18.015Z,22.05
2022-11-09T15:04:54.628Z,20.67
2022-11-09T15:07:25.279Z,21.15
2022-11-09T15:09:59.163Z,21.50
2022-11-09T15:12:26.292Z,20.23
2022-11-09T15:15:02.366Z,24.83
2022-11-09T15:17:38.064Z,22.08
2022-11-09T15:20:26.812Z,19.08
2022-11-09T15:22:55.315Z,21.42
2022-11-09T15:25:37.310Z,23.02
2022-11-09T15:28:12.877Z,23.48
2022-11-09T15:30:54.530Z,21.00
2022-11-09T15:33:29.053Z,22.60
2022-11-09T15:35:59.815Z,21.75
2022-11-09T15:38:39.172Z,23.38
2022-11-09T15:41:20.214Z,22.60
2022-11-09T15:43:47.185Z,23.75
2022-11-09T15:46:20.614Z,21.65
2022-11-09T15:48:47.463Z,27.52
2022-11-09T15:51:15.161Z,25.02
2022-11-09T15:53:42.327Z,24.20
2022-11-09T15:56:18.295Z,25.70
2022-11-09T15:58:47.097Z,26.55
2022-11-09T16:01:14.105Z,23.10
2022-11-09T16:03:41.077Z,20.13
2022-11-09T16:06:11.083Z,18.48
2022-11-09T16:08:38.562Z,21.13
2022-11-09T16:11:06.228Z,23.02
2022-11-09T16:13:33.212Z,22.02
2022-11-09T16:16:09.393Z,23.40
2022-11-09T16:18:36.710Z,21.67
2022-11-09T16:21:10.873Z,21.38
2022-11-09T16:23:38.100Z,21.58
2022-11-09T16:26:16.997Z,18.95
2022-11-09T16:28:44.285Z,24.88
2022-11-09T16:31:15.135Z,20.65
2022-11-09T16:33:42.001Z,23.02
2022-11-09T16:36:16.256Z,23.02
2022-11-09T16:38:45.075Z,22.67
2022-11-09T16:41:13.606Z,22.85
2022-11-09T16:43:41.094Z,26.58
2022-11-09T16:46:07.994Z,23.20
2022-11-09T16:48:35.768Z,22.30
2022-11-09T16:51:02.837Z,22.00
2022-11-09T16:53:30.223Z,24.45
2022-11-09T16:55:57.368Z,23.15
2022-11-09T16:58:24.324Z,21.50
2022-11-09T17:03:39.735Z,23.20
2022-11-09T17:06:11.163Z,25.70
2022-11-09T17:08:42.058Z,24.00
2022-11-09T17:11:11.063Z,23.45
2022-11-09T17:13:38.761Z,22.73
2022-11-09T17:16:08.724Z,23.73
2022-11-09T17:18:37.749Z,24.95
2022-11-09T17:21:10.577Z,28.70
2022-11-09T17:23:38.226Z,28.90
2022-11-09T17:26:06.645Z,33.15
2022-11-09T17:28:35.218Z,29.23
2022-11-09T17:31:18.033Z,27.13
2022-11-09T17:33:45.212Z,26.75
2022-11-09T17:36:15.393Z,27.33
2022-11-09T17:38:42.490Z,28.92
2022-11-09T17:41:17.822Z,29.38
2022-11-09T17:43:45.676Z,26.73
2022-11-09T17:46:18.984Z,26.38
2022-11-09T17:48:47.671Z,28.40
2022-11-09T17:51:16.286Z,29.08
2022-11-09T17:53:43.861Z,28.45
2022-11-09T17:56:11.437Z,28.30
2022-11-09T17:58:43.031Z,29.85
2022-11-09T18:01:12.893Z,28.00
2022-11-09T18:03:40.455Z,29.08
2022-11-09T18:06:13.461Z,37.03
2022-11-09T18:08:41.073Z,32.40
2022-11-09T18:11:08.041Z,30.55
2022-11-09T18:13:35.020Z,30.23
2022-11-09T18:16:13.321Z,28.73
2022-11-09T18:18:44.711Z,36.58
2022-11-09T18:21:17.157Z,32.90
2022-11-09T18:23:45.256Z,31.83
2022-11-09T18:26:13.262Z,32.67
2022-11-09T18:28:40.395Z,37.70
2022-11-09T18:31:09.686Z,31.67
2022-11-09T18:33:37.116Z,35.13
2022-11-09T18:36:07.499Z,36.45
2022-11-09T18:38:34.818Z,37.08
2022-11-09T18:41:14.098Z,37.65
2022-11-09T18:43:41.822Z,35.15
2022-11-09T18:46:11.397Z,34.95
2022-11-09T18:48:38.669Z,37.17
2022-11-09T18:51:07.094Z,31.05
2022-11-09T18:53:39.296Z,34.00
2022-11-09T18:56:18.617Z,36.42
2022-11-09T18:58:46.161Z,33.17
2022-11-09T19:01:13.396Z,38.22
2022-11-09T19:03:40.404Z,32.05
2022-11-09T19:06:11.591Z,32.75
2022-11-09T19:08:57.092Z,31.88
2022-11-09T19:11:24.050Z,36.80
2022-11-09T19:13:50.964Z,33.28
2022-11-09T19:16:18.699Z,37.20
2022-11-09T19:18:45.594Z,33.03
2022-11-09T19:21:40.241Z,34.08
2022-11-09T19:24:10.308Z,30.92
2022-11-09T19:26:37.351Z,34.40
2022-11-09T19:29:06.051Z,31.42
2022-11-09T19:31:34.631Z,34.80
2022-11-09T19:34:01.746Z,34.72
2022-11-09T19:36:31.218Z,34.47
2022-11-09T19:38:58.821Z,35.63
2022-11-09T19:41:26.124Z,34.25
2022-11-09T19:43:55.925Z,34.42
2022-11-09T19:46:23.257Z,35.60
2022-11-09T19:48:50.104Z,34.97
2022-11-09T19:51:18.163Z,34.83
2022-11-09T19:53:58.607Z,33.67
2022-11-09T19:56:27.794Z,35.20
2022-11-09T19:59:02.020Z,39.55
2022-11-09T20:05:16.791Z,35.35
2022-11-09T20:07:43.827Z,34.28
2022-11-09T20:10:12.293Z,35.47
2022-11-09T20:12:51.323Z,36.78
2022-11-09T20:15:19.123Z,36.90
2022-11-09T20:17:46.200Z,32.92
2022-11-09T20:20:15.434Z,38.85
2022-11-09T20:22:42.820Z,35.42
2022-11-09T20:25:10.257Z,33.50
2022-11-09T20:27:37.341Z,38.50
2022-11-09T20:30:04.796Z,37.63
2022-11-09T20:32:31.688Z,38.95
2022-11-09T20:34:58.692Z,39.88
2022-11-09T20:37:25.581Z,41.17
2022-11-09T20:39:52.471Z,38.20
2022-11-09T20:42:19.324Z,42.70
2022-11-09T20:44:46.195Z,43.88
2022-11-09T20:47:13.094Z,42.17
2022-11-09T20:49:40.428Z,42.00
2022-11-09T20:52:07.282Z,40.03
2022-11-09T20:54:34.405Z,40.17
2022-11-09T20:57:01.430Z,40.95
2022-11-09T20:59:28.985Z,40.35
2022-11-09T21:01:55.775Z,37.85
2022-11-09T21:04:22.651Z,39.45
2022-11-09T21:06:49.865Z,40.95
2022-11-09T21:09:16.810Z,37.65
2022-11-09T21:12:02.068Z,42.42
2022-11-09T21:14:28.859Z,38.90
2022-11-09T21:16:55.906Z,38.90
2022-11-09T21:19:22.711Z,40.63
2022-11-09T21:21:49.595Z,42.17
2022-11-09T21:24:35.150Z,42.45
2022-11-09T21:27:20.411Z,38.90
2022-11-09T21:29:50.292Z,43.25
2022-11-09T21:32:18.396Z,42.40
2022-11-09T21:34:45.312Z,35.08
2022-11-09T21:37:15.029Z,34.95
2022-11-09T21:39:42.631Z,37.08
2022-11-09T21:42:12.047Z,42.65
2022-11-09T21:44:39.652Z,41.25
2022-11-09T21:47:07.021Z,37.25
2022-11-09T21:49:34.283Z,39.83
2022-11-09T21:52:01.473Z,38.22
2022-11-09T21:54:28.557Z,39.50
2022-11-09T21:56:55.931Z,37.30
2022-11-09T21:59:22.890Z,38.15
2022-11-09T22:01:50.074Z,42.38
2022-11-09T22:04:17.252Z,41.75
2022-11-09T22:06:44.218Z,38.40
2022-11-09T22:09:16.916Z,40.83
2022-11-09T22:12:02.626Z,39.90
2022-11-09T22:14:48.369Z,39.75
2022-11-09T22:17:15.531Z,34.00
2022-11-09T22:20:00.935Z,42.58
2022-11-09T22:22:30.283Z,36.55
2022-11-09T22:24:57.673Z,40.85
2022-11-09T22:27:24.717Z,36.22
2022-11-09T22:29:51.752Z,43.88
2022-11-09T22:32:18.701Z,39.72
2022-11-09T22:34:45.684Z,38.33
2022-11-09T22:37:12.581Z,40.45
2022-11-09T22:39:43.048Z,38.95
2022-11-09T22:42:13.785Z,39.60
2022-11-09T22:44:40.620Z,38.13
2022-11-09T22:47:07.454Z,42.97
2022-11-09T22:49:36.721Z,37.83
2022-11-09T22:52:05.022Z,39.53
2022-11-09T22:54:31.952Z,37.75
2022-11-09T22:56:58.845Z,42.50
2022-11-09T22:59:25.771Z,41.05
2022-11-09T23:01:52.648Z,36.33
2022-11-09T23:04:19.502Z,38.80
2022-11-09T23:06:46.472Z,35.80
2022-11-09T23:09:13.753Z,38.70
2022-11-09T23:11:42.142Z,33.35
2022-11-09T23:14:09.003Z,34.15
2022-11-09T23:16:35.859Z,34.72
2022-11-09T23:19:02.688Z,35.97
2022-11-09T23:21:34.647Z,37.22
2022-11-09T23:24:06.867Z,35.50
2022-11-09T23:26:34.434Z,29.15
2022-11-09T23:29:01.506Z,31.67
2022-11-09T23:31:28.601Z,35.63
2022-11-09T23:33:57.494Z,31.77
2022-11-09T23:36:25.829Z,34.28
2022-11-09T23:38:52.972Z,30.42
2022-11-09T23:41:21.399Z,31.20
2022-11-09T23:43:49.944Z,32.78
2022-11-09T23:46:18.263Z,30.40
2022-11-09T23:48:45.362Z,27.98
2022-11-09T23:51:12.210Z,29.33
2022-11-09T23:53:39.566Z,27.02
2022-11-09T23:56:11.489Z,25.88
2022-11-09T23:58:38.824Z,27.35
